sensor_id;sensor_type;location;lat;lon;timestamp;P1;durP1;ratioP1;P2;durP2;ratioP2
3211;SDS011;1618;47.056;15.472;2023-09-19T00:01:16;15.60;;;14.90;;
3211;SDS011;1618;47.056;15.472;2023-09-19T00:06:50;13.93;;;13.33;;
3211;SDS011;1618;47.056;15.472;2023-09-19T00:12:22;14.07;;;13.40;;
3211;SDS011;1618;47.056;15.472;2023-09-19T00:17:53;14.50;;;13.80;;
3211;SDS011;1618;47.056;15.472;2023-09-19T00:23:25;13.20;;;12.60;;
3211;SDS011;1618;47.056;15.472;2023-09-19T00:28:56;13.23;;;12.63;;
3211;SDS011;1618;47.056;15.472;2023-09-19T00:34:33;13.50;;;12.90;;
3211;SDS011;1618;47.056;15.472;2023-09-19T00:40:06;13.40;;;12.80;;
3211;SDS011;1618;47.056;15.472;2023-09-19T00:48:49;13.00;;;12.40;;
3211;SDS011;1618;47.056;15.472;2023-09-19T00:54:33;12.13;;;11.63;;
3211;SDS011;1618;47.056;15.472;2023-09-19T00:57:02;11.90;;;11.40;;
3211;SDS011;1618;47.056;15.472;2023-09-19T01:02:33;11.80;;;11.30;;
3211;SDS011;1618;47.056;15.472;2023-09-19T01:05:13;11.60;;;11.10;;
3211;SDS011;1618;47.056;15.472;2023-09-19T01:16:50;11.20;;;10.70;;
3211;SDS011;1618;47.056;15.472;2023-09-19T01:22:21;10.60;;;10.10;;
3211;SDS011;1618;47.056;15.472;2023-09-19T01:25:06;10.40;;;10.00;;
3211;SDS011;1618;47.056;15.472;2023-09-19T01:30:35;10.40;;;10.00;;
3211;SDS011;1618;47.056;15.472;2023-09-19T01:36:11;10.60;;;10.10;;
3211;SDS011;1618;47.056;15.472;2023-09-19T01:38:45;10.40;;;10.00;;
3211;SDS011;1618;47.056;15.472;2023-09-19T01:41:14;10.93;;;10.43;;
3211;SDS011;1618;47.056;15.472;2023-09-19T01:43:47;10.80;;;10.30;;
3211;SDS011;1618;47.056;15.472;2023-09-19T01:46:24;10.47;;;10.03;;
3211;SDS011;1618;47.056;15.472;2023-09-19T01:48:54;10.67;;;10.17;;
3211;SDS011;1618;47.056;15.472;2023-09-19T01:51:28;10.10;;;9.70;;
3211;SDS011;1618;47.056;15.472;2023-09-19T01:54:00;10.70;;;10.20;;
3211;SDS011;1618;47.056;15.472;2023-09-19T01:59:25;10.10;;;9.70;;
3211;SDS011;1618;47.056;15.472;2023-09-19T02:01:57;10.00;;;9.60;;
3211;SDS011;1618;47.056;15.472;2023-09-19T02:07:18;9.60;;;9.20;;
3211;SDS011;1618;47.056;15.472;2023-09-19T02:09:56;10.17;;;9.77;;
3211;SDS011;1618;47.056;15.472;2023-09-19T02:12:24;9.90;;;9.50;;
3211;SDS011;1618;47.056;15.472;2023-09-19T02:14:53;10.00;;;9.60;;
3211;SDS011;1618;47.056;15.472;2023-09-19T02:17:25;10.00;;;9.60;;
3211;SDS011;1618;47.056;15.472;2023-09-19T02:19:57;10.10;;;9.70;;
3211;SDS011;1618;47.056;15.472;2023-09-19T02:22:32;9.90;;;9.50;;
3211;SDS011;1618;47.056;15.472;2023-09-19T02:25:10;10.43;;;10.03;;
3211;SDS011;1618;47.056;15.472;2023-09-19T02:27:40;10.00;;;9.60;;
3211;SDS011;1618;47.056;15.472;2023-09-19T02:30:12;10.00;;;9.60;;
3211;SDS011;1618;47.056;15.472;2023-09-19T02:32:46;9.73;;;9.33;;
3211;SDS011;1618;47.056;15.472;2023-09-19T02:35:15;10.63;;;10.20;;
3211;SDS011;1618;47.056;15.472;2023-09-19T02:37:44;11.10;;;10.60;;
3211;SDS011;1618;47.056;15.472;2023-09-19T02:40:16;11.90;;;11.40;;
3211;SDS011;1618;47.056;15.472;2023-09-19T02:42:54;11.90;;;11.40;;
3211;SDS011;1618;47.056;15.472;2023-09-19T02:45:26;11.80;;;11.30;;
3211;SDS011;1618;47.056;15.472;2023-09-19T02:47:57;11.90;;;11.40;;
3211;SDS011;1618;47.056;15.472;2023-09-19T02:50:26;12.10;;;11.60;;
3211;SDS011;1618;47.056;15.472;2023-09-19T02:52:54;13.40;;;12.80;;
3211;SDS011;1618;47.056;15.472;2023-09-19T02:55:27;14.60;;;13.90;;
3211;SDS011;1618;47.056;15.472;2023-09-19T02:57:56;14.80;;;14.10;;
3211;SDS011;1618;47.056;15.472;2023-09-19T03:00:33;15.70;;;14.90;;
3211;SDS011;1618;47.056;15.472;2023-09-19T03:03:03;16.50;;;15.60;;
3211;SDS011;1618;47.056;15.472;2023-09-19T03:05:48;17.00;;;16.10;;
3211;SDS011;1618;47.056;15.472;2023-09-19T03:11:18;16.30;;;15.50;;
3211;SDS011;1618;47.056;15.472;2023-09-19T03:19:38;15.67;;;14.87;;
3211;SDS011;1618;47.056;15.472;2023-09-19T03:25:10;14.63;;;13.93;;
3211;SDS011;1618;47.056;15.472;2023-09-19T03:30:41;14.30;;;13.60;;
3211;SDS011;1618;47.056;15.472;2023-09-19T03:39:22;14.10;;;13.40;;
3211;SDS011;1618;47.056;15.472;2023-09-19T03:41:58;15.03;;;14.33;;
3211;SDS011;1618;47.056;15.472;2023-09-19T03:44:32;15.30;;;14.60;;
3211;SDS011;1618;47.056;15.472;2023-09-19T03:47:06;15.60;;;14.80;;
3211;SDS011;1618;47.056;15.472;2023-09-19T03:49:35;16.10;;;15.30;;
3211;SDS011;1618;47.056;15.472;2023-09-19T03:52:02;15.83;;;15.03;;
3211;SDS011;1618;47.056;15.472;2023-09-19T03:54:33;14.60;;;13.90;;
3211;SDS011;1618;47.056;15.472;2023-09-19T03:57:03;14.70;;;14.00;;
3211;SDS011;1618;47.056;15.472;2023-09-19T03:59:33;14.03;;;13.33;;
3211;SDS011;1618;47.056;15.472;2023-09-19T04:02:01;13.10;;;12.50;;
3211;SDS011;1618;47.056;15.472;2023-09-19T04:04:30;12.90;;;12.30;;
3211;SDS011;1618;47.056;15.472;2023-09-19T04:07:09;12.90;;;12.30;;
3211;SDS011;1618;47.056;15.472;2023-09-19T04:09:41;13.03;;;12.43;;
3211;SDS011;1618;47.056;15.472;2023-09-19T04:12:13;12.90;;;12.30;;
3211;SDS011;1618;47.056;15.472;2023-09-19T04:14:47;13.00;;;12.40;;
3211;SDS011;1618;47.056;15.472;2023-09-19T04:17:17;12.70;;;12.10;;
3211;SDS011;1618;47.056;15.472;2023-09-19T04:19:47;12.90;;;12.30;;
3211;SDS011;1618;47.056;15.472;2023-09-19T04:22:17;13.10;;;12.50;;
3211;SDS011;1618;47.056;15.472;2023-09-19T04:25:00;12.17;;;11.67;;
3211;SDS011;1618;47.056;15.472;2023-09-19T04:27:31;13.20;;;12.60;;
3211;SDS011;1618;47.056;15.472;2023-09-19T04:35:49;13.67;;;13.07;;
3211;SDS011;1618;47.056;15.472;2023-09-19T04:41:21;15.60;;;14.90;;
3211;SDS011;1618;47.056;15.472;2023-09-19T04:43:56;15.83;;;15.13;;
3211;SDS011;1618;47.056;15.472;2023-09-19T04:52:43;11.90;;;11.40;;
3211;SDS011;1618;47.056;15.472;2023-09-19T04:58:17;13.50;;;12.90;;
3211;SDS011;1618;47.056;15.472;2023-09-19T05:03:47;12.53;;;12.03;;
3211;SDS011;1618;47.056;15.472;2023-09-19T05:09:20;15.20;;;14.60;;
3211;SDS011;1618;47.056;15.472;2023-09-19T05:17:29;12.70;;;12.10;;
3211;SDS011;1618;47.056;15.472;2023-09-19T05:19:59;12.00;;;11.50;;
3211;SDS011;1618;47.056;15.472;2023-09-19T05:22:31;11.20;;;10.70;;
3211;SDS011;1618;47.056;15.472;2023-09-19T05:24:59;10.60;;;10.10;;
3211;SDS011;1618;47.056;15.472;2023-09-19T05:27:29;10.57;;;10.17;;
3211;SDS011;1618;47.056;15.472;2023-09-19T05:29:56;10.80;;;10.30;;
3211;SDS011;1618;47.056;15.472;2023-09-19T05:32:24;10.90;;;10.40;;
3211;SDS011;1618;47.056;15.472;2023-09-19T05:34:53;10.50;;;10.10;;
3211;SDS011;1618;47.056;15.472;2023-09-19T05:37:21;10.50;;;10.10;;
3211;SDS011;1618;47.056;15.472;2023-09-19T05:39:51;10.50;;;10.10;;
3211;SDS011;1618;47.056;15.472;2023-09-19T05:42:19;10.70;;;10.20;;
3211;SDS011;1618;47.056;15.472;2023-09-19T05:44:46;10.60;;;10.10;;
3211;SDS011;1618;47.056;15.472;2023-09-19T05:47:14;10.30;;;9.90;;
3211;SDS011;1618;47.056;15.472;2023-09-19T05:49:41;10.10;;;9.70;;
3211;SDS011;1618;47.056;15.472;2023-09-19T05:52:10;10.20;;;9.80;;
3211;SDS011;1618;47.056;15.472;2023-09-19T05:54:39;9.80;;;9.40;;
3211;SDS011;1618;47.056;15.472;2023-09-19T05:57:07;9.80;;;9.40;;
3211;SDS011;1618;47.056;15.472;2023-09-19T05:59:37;9.90;;;9.50;;
3211;SDS011;1618;47.056;15.472;2023-09-19T06:02:05;9.80;;;9.40;;
3211;SDS011;1618;47.056;15.472;2023-09-19T06:04:33;10.23;;;9.83;;
3211;SDS011;1618;47.056;15.472;2023-09-19T06:07:02;10.40;;;10.00;;
3211;SDS011;1618;47.056;15.472;2023-09-19T06:09:30;10.10;;;9.70;;
3211;SDS011;1618;47.056;15.472;2023-09-19T06:11:58;10.10;;;9.70;;
3211;SDS011;1618;47.056;15.472;2023-09-19T06:14:28;10.10;;;9.70;;
3211;SDS011;1618;47.056;15.472;2023-09-19T06:16:55;9.70;;;9.30;;
3211;SDS011;1618;47.056;15.472;2023-09-19T06:19:23;9.60;;;9.20;;
3211;SDS011;1618;47.056;15.472;2023-09-19T06:21:52;10.00;;;9.60;;
3211;SDS011;1618;47.056;15.472;2023-09-19T06:24:20;10.50;;;10.10;;
3211;SDS011;1618;47.056;15.472;2023-09-19T06:26:49;9.80;;;9.40;;
3211;SDS011;1618;47.056;15.472;2023-09-19T06:29:17;9.90;;;9.50;;
3211;SDS011;1618;47.056;15.472;2023-09-19T06:31:45;9.53;;;9.13;;
3211;SDS011;1618;47.056;15.472;2023-09-19T06:34:14;9.67;;;9.27;;
3211;SDS011;1618;47.056;15.472;2023-09-19T06:36:44;9.60;;;9.20;;
3211;SDS011;1618;47.056;15.472;2023-09-19T06:39:11;10.47;;;10.07;;
3211;SDS011;1618;47.056;15.472;2023-09-19T06:41:39;10.00;;;9.60;;
3211;SDS011;1618;47.056;15.472;2023-09-19T06:44:08;9.90;;;9.50;;
3211;SDS011;1618;47.056;15.472;2023-09-19T06:46:35;8.57;;;8.27;;
3211;SDS011;1618;47.056;15.472;2023-09-19T06:49:04;9.50;;;9.10;;
3211;SDS011;1618;47.056;15.472;2023-09-19T06:51:31;10.40;;;10.00;;
3211;SDS011;1618;47.056;15.472;2023-09-19T06:53:59;10.43;;;10.03;;
3211;SDS011;1618;47.056;15.472;2023-09-19T06:56:28;10.20;;;9.80;;
3211;SDS011;1618;47.056;15.472;2023-09-19T06:58:55;10.70;;;10.30;;
3211;SDS011;1618;47.056;15.472;2023-09-19T07:01:24;10.20;;;9.80;;
3211;SDS011;1618;47.056;15.472;2023-09-19T07:03:51;9.30;;;8.90;;
3211;SDS011;1618;47.056;15.472;2023-09-19T07:06:19;8.93;;;8.57;;
3211;SDS011;1618;47.056;15.472;2023-09-19T07:08:46;9.60;;;9.20;;
3211;SDS011;1618;47.056;15.472;2023-09-19T07:11:15;9.87;;;9.47;;
3211;SDS011;1618;47.056;15.472;2023-09-19T07:13:44;9.90;;;9.50;;
3211;SDS011;1618;47.056;15.472;2023-09-19T07:16:12;9.83;;;9.43;;
3211;SDS011;1618;47.056;15.472;2023-09-19T07:18:54;11.00;;;10.57;;
3211;SDS011;1618;47.056;15.472;2023-09-19T07:21:23;11.80;;;11.30;;
3211;SDS011;1618;47.056;15.472;2023-09-19T07:23:51;11.80;;;11.30;;
3211;SDS011;1618;47.056;15.472;2023-09-19T07:26:18;11.80;;;11.30;;
3211;SDS011;1618;47.056;15.472;2023-09-19T07:28:45;12.40;;;11.90;;
3211;SDS011;1618;47.056;15.472;2023-09-19T07:31:13;13.20;;;12.60;;
3211;SDS011;1618;47.056;15.472;2023-09-19T07:33:41;13.63;;;13.03;;
3211;SDS011;1618;47.056;15.472;2023-09-19T07:36:12;14.00;;;13.40;;
3211;SDS011;1618;47.056;15.472;2023-09-19T07:38:43;14.30;;;13.70;;
3211;SDS011;1618;47.056;15.472;2023-09-19T07:41:10;14.00;;;13.40;;
3211;SDS011;1618;47.056;15.472;2023-09-19T07:43:37;14.90;;;14.20;;
3211;SDS011;1618;47.056;15.472;2023-09-19T07:46:05;15.20;;;14.50;;
3211;SDS011;1618;47.056;15.472;2023-09-19T07:48:34;15.50;;;14.80;;
3211;SDS011;1618;47.056;15.472;2023-09-19T07:51:03;16.60;;;15.80;;
3211;SDS011;1618;47.056;15.472;2023-09-19T07:53:34;16.90;;;16.10;;
3211;SDS011;1618;47.056;15.472;2023-09-19T07:56:04;16.57;;;15.77;;
3211;SDS011;1618;47.056;15.472;2023-09-19T07:58:33;17.30;;;16.50;;
3211;SDS011;1618;47.056;15.472;2023-09-19T08:01:05;17.07;;;16.27;;
3211;SDS011;1618;47.056;15.472;2023-09-19T08:03:32;17.00;;;16.20;;
3211;SDS011;1618;47.056;15.472;2023-09-19T08:05:59;19.80;;;18.80;;
3211;SDS011;1618;47.056;15.472;2023-09-19T08:08:27;18.53;;;17.63;;
3211;SDS011;1618;47.056;15.472;2023-09-19T08:10:55;18.80;;;17.90;;
3211;SDS011;1618;47.056;15.472;2023-09-19T08:13:23;18.60;;;17.70;;
3211;SDS011;1618;47.056;15.472;2023-09-19T08:15:50;18.93;;;18.03;;
3211;SDS011;1618;47.056;15.472;2023-09-19T08:18:18;18.60;;;17.70;;
3211;SDS011;1618;47.056;15.472;2023-09-19T08:20:49;19.27;;;18.37;;
3211;SDS011;1618;47.056;15.472;2023-09-19T08:23:16;20.17;;;19.17;;
3211;SDS011;1618;47.056;15.472;2023-09-19T08:25:45;19.80;;;18.90;;
3211;SDS011;1618;47.056;15.472;2023-09-19T08:28:13;19.00;;;18.10;;
3211;SDS011;1618;47.056;15.472;2023-09-19T08:30:45;20.43;;;19.43;;
3211;SDS011;1618;47.056;15.472;2023-09-19T08:33:12;19.93;;;18.93;;
3211;SDS011;1618;47.056;15.472;2023-09-19T08:35:40;21.07;;;20.07;;
3211;SDS011;1618;47.056;15.472;2023-09-19T08:38:08;19.63;;;18.73;;
3211;SDS011;1618;47.056;15.472;2023-09-19T08:40:37;19.47;;;18.57;;
3211;SDS011;1618;47.056;15.472;2023-09-19T08:43:05;19.10;;;18.20;;
3211;SDS011;1618;47.056;15.472;2023-09-19T08:45:34;19.60;;;18.70;;
3211;SDS011;1618;47.056;15.472;2023-09-19T08:48:06;18.70;;;17.80;;
3211;SDS011;1618;47.056;15.472;2023-09-19T08:50:37;19.83;;;18.83;;
3211;SDS011;1618;47.056;15.472;2023-09-19T08:53:10;19.37;;;18.47;;
3211;SDS011;1618;47.056;15.472;2023-09-19T08:55:38;22.20;;;21.10;;
3211;SDS011;1618;47.056;15.472;2023-09-19T08:58:10;24.43;;;23.13;;
3211;SDS011;1618;47.056;15.472;2023-09-19T09:00:42;26.80;;;25.30;;
3211;SDS011;1618;47.056;15.472;2023-09-19T09:03:11;25.87;;;24.47;;
3211;SDS011;1618;47.056;15.472;2023-09-19T09:05:40;25.90;;;24.47;;
3211;SDS011;1618;47.056;15.472;2023-09-19T09:08:11;26.67;;;25.17;;
3211;SDS011;1618;47.056;15.472;2023-09-19T09:10:40;27.10;;;25.50;;
3211;SDS011;1618;47.056;15.472;2023-09-19T09:13:07;28.13;;;26.43;;
3211;SDS011;1618;47.056;15.472;2023-09-19T09:15:37;29.70;;;27.80;;
3211;SDS011;1618;47.056;15.472;2023-09-19T09:18:06;29.67;;;27.77;;
3211;SDS011;1618;47.056;15.472;2023-09-19T09:20:34;29.93;;;27.93;;
3211;SDS011;1618;47.056;15.472;2023-09-19T09:23:01;30.73;;;28.63;;
3211;SDS011;1618;47.056;15.472;2023-09-19T09:28:11;28.80;;;26.70;;
3211;SDS011;1618;47.056;15.472;2023-09-19T09:30:46;28.60;;;26.50;;
3211;SDS011;1618;47.056;15.472;2023-09-19T09:33:14;28.47;;;26.37;;
3211;SDS011;1618;47.056;15.472;2023-09-19T09:35:48;29.00;;;26.80;;
3211;SDS011;1618;47.056;15.472;2023-09-19T09:38:17;28.93;;;26.73;;
3211;SDS011;1618;47.056;15.472;2023-09-19T09:40:45;30.13;;;27.93;;
3211;SDS011;1618;47.056;15.472;2023-09-19T09:46:11;30.13;;;27.83;;
3211;SDS011;1618;47.056;15.472;2023-09-19T09:49:02;29.20;;;26.90;;
3211;SDS011;1618;47.056;15.472;2023-09-19T09:51:59;28.20;;;26.10;;
3211;SDS011;1618;47.056;15.472;2023-09-19T09:54:31;29.23;;;27.03;;
3211;SDS011;1618;47.056;15.472;2023-09-19T09:57:03;31.67;;;29.27;;
3211;SDS011;1618;47.056;15.472;2023-09-19T09:59:52;29.90;;;27.60;;
3211;SDS011;1618;47.056;15.472;2023-09-19T10:02:21;29.77;;;27.57;;
3211;SDS011;1618;47.056;15.472;2023-09-19T10:04:56;28.60;;;26.40;;
3211;SDS011;1618;47.056;15.472;2023-09-19T10:07:41;29.93;;;27.73;;
3211;SDS011;1618;47.056;15.472;2023-09-19T10:10:15;28.70;;;26.60;;
3211;SDS011;1618;47.056;15.472;2023-09-19T10:13:03;29.87;;;27.67;;
3211;SDS011;1618;47.056;15.472;2023-09-19T10:15:32;30.60;;;28.20;;
3211;SDS011;1618;47.056;15.472;2023-09-19T10:20:32;30.43;;;28.13;;
3211;SDS011;1618;47.056;15.472;2023-09-19T10:23:04;31.20;;;28.70;;
3211;SDS011;1618;47.056;15.472;2023-09-19T10:25:36;31.33;;;28.77;;
3211;SDS011;1618;47.056;15.472;2023-09-19T10:28:06;31.60;;;29.00;;
3211;SDS011;1618;47.056;15.472;2023-09-19T10:30:36;33.63;;;30.93;;
3211;SDS011;1618;47.056;15.472;2023-09-19T10:33:08;33.13;;;30.43;;
3211;SDS011;1618;47.056;15.472;2023-09-19T10:35:39;32.90;;;30.30;;
3211;SDS011;1618;47.056;15.472;2023-09-19T10:38:07;32.80;;;30.20;;
3211;SDS011;1618;47.056;15.472;2023-09-19T10:40:36;32.63;;;29.97;;
3211;SDS011;1618;47.056;15.472;2023-09-19T10:43:11;33.83;;;30.93;;
3211;SDS011;1618;47.056;15.472;2023-09-19T10:45:41;35.23;;;32.30;;
3211;SDS011;1618;47.056;15.472;2023-09-19T10:48:09;33.40;;;30.60;;
3211;SDS011;1618;47.056;15.472;2023-09-19T10:50:43;32.17;;;29.47;;
3211;SDS011;1618;47.056;15.472;2023-09-19T10:53:12;34.40;;;31.60;;
3211;SDS011;1618;47.056;15.472;2023-09-19T10:55:41;34.03;;;31.23;;
3211;SDS011;1618;47.056;15.472;2023-09-19T10:58:24;33.37;;;30.50;;
3211;SDS011;1618;47.056;15.472;2023-09-19T11:00:55;32.37;;;29.50;;
3211;SDS011;1618;47.056;15.472;2023-09-19T11:03:28;33.80;;;31.00;;
3211;SDS011;1618;47.056;15.472;2023-09-19T11:06:07;32.30;;;29.60;;
3211;SDS011;1618;47.056;15.472;2023-09-19T11:08:52;33.63;;;30.73;;
3211;SDS011;1618;47.056;15.472;2023-09-19T11:25:43;34.50;;;31.60;;
3211;SDS011;1618;47.056;15.472;2023-09-19T11:28:30;34.63;;;31.73;;
3211;SDS011;1618;47.056;15.472;2023-09-19T11:30:57;33.27;;;30.27;;
3211;SDS011;1618;47.056;15.472;2023-09-19T11:33:25;36.80;;;33.70;;
3211;SDS011;1618;47.056;15.472;2023-09-19T11:36:02;32.00;;;29.10;;
3211;SDS011;1618;47.056;15.472;2023-09-19T11:46:54;34.20;;;31.30;;
3211;SDS011;1618;47.056;15.472;2023-09-19T11:49:25;34.37;;;31.37;;
3211;SDS011;1618;47.056;15.472;2023-09-19T11:51:56;34.90;;;31.90;;
3211;SDS011;1618;47.056;15.472;2023-09-19T11:54:25;34.63;;;31.63;;
3211;SDS011;1618;47.056;15.472;2023-09-19T11:56:58;34.77;;;31.77;;
3211;SDS011;1618;47.056;15.472;2023-09-19T11:59:27;35.87;;;32.67;;
3211;SDS011;1618;47.056;15.472;2023-09-19T12:01:57;35.90;;;32.77;;
3211;SDS011;1618;47.056;15.472;2023-09-19T12:04:33;33.53;;;30.63;;
3211;SDS011;1618;47.056;15.472;2023-09-19T12:07:03;35.23;;;32.23;;
3211;SDS011;1618;47.056;15.472;2023-09-19T12:09:31;34.80;;;31.70;;
3211;SDS011;1618;47.056;15.472;2023-09-19T12:11:58;34.53;;;31.43;;
3211;SDS011;1618;47.056;15.472;2023-09-19T12:14:25;35.13;;;31.93;;
3211;SDS011;1618;47.056;15.472;2023-09-19T12:16:54;34.43;;;31.33;;
3211;SDS011;1618;47.056;15.472;2023-09-19T12:19:23;36.30;;;33.10;;
3211;SDS011;1618;47.056;15.472;2023-09-19T12:21:58;34.87;;;31.77;;
3211;SDS011;1618;47.056;15.472;2023-09-19T12:24:30;36.23;;;33.03;;
3211;SDS011;1618;47.056;15.472;2023-09-19T12:27:01;36.93;;;33.73;;
3211;SDS011;1618;47.056;15.472;2023-09-19T12:29:31;35.87;;;32.67;;
3211;SDS011;1618;47.056;15.472;2023-09-19T12:31:59;36.17;;;32.97;;
3211;SDS011;1618;47.056;15.472;2023-09-19T12:34:30;35.73;;;32.53;;
3211;SDS011;1618;47.056;15.472;2023-09-19T12:37:06;35.20;;;32.10;;
3211;SDS011;1618;47.056;15.472;2023-09-19T12:39:38;37.57;;;34.27;;
3211;SDS011;1618;47.056;15.472;2023-09-19T12:42:07;35.50;;;32.20;;
3211;SDS011;1618;47.056;15.472;2023-09-19T12:44:35;35.77;;;32.67;;
3211;SDS011;1618;47.056;15.472;2023-09-19T12:47:14;35.27;;;32.07;;
3211;SDS011;1618;47.056;15.472;2023-09-19T12:52:35;34.80;;;31.50;;
3211;SDS011;1618;47.056;15.472;2023-09-19T12:55:03;35.00;;;31.73;;
3211;SDS011;1618;47.056;15.472;2023-09-19T12:57:32;34.67;;;31.47;;
3211;SDS011;1618;47.056;15.472;2023-09-19T13:00:01;35.03;;;31.93;;
3211;SDS011;1618;47.056;15.472;2023-09-19T13:02:30;37.20;;;33.90;;
3211;SDS011;1618;47.056;15.472;2023-09-19T13:04:58;35.10;;;31.90;;
3211;SDS011;1618;47.056;15.472;2023-09-19T13:07:43;36.80;;;33.30;;
3211;SDS011;1618;47.056;15.472;2023-09-19T13:10:12;34.70;;;31.10;;
3211;SDS011;1618;47.056;15.472;2023-09-19T13:12:42;36.37;;;32.77;;
3211;SDS011;1618;47.056;15.472;2023-09-19T13:15:13;35.53;;;32.13;;
3211;SDS011;1618;47.056;15.472;2023-09-19T13:17:45;36.50;;;33.30;;
3211;SDS011;1618;47.056;15.472;2023-09-19T13:20:22;38.70;;;35.47;;
3211;SDS011;1618;47.056;15.472;2023-09-19T13:22:59;36.63;;;33.50;;
3211;SDS011;1618;47.056;15.472;2023-09-19T13:25:35;34.93;;;31.93;;
3211;SDS011;1618;47.056;15.472;2023-09-19T13:28:06;36.10;;;32.90;;
3211;SDS011;1618;47.056;15.472;2023-09-19T13:30:33;36.50;;;33.30;;
3211;SDS011;1618;47.056;15.472;2023-09-19T13:33:08;35.57;;;32.47;;
3211;SDS011;1618;47.056;15.472;2023-09-19T13:35:35;33.60;;;30.30;;
3211;SDS011;1618;47.056;15.472;2023-09-19T13:38:06;35.97;;;32.87;;
3211;SDS011;1618;47.056;15.472;2023-09-19T13:40:36;33.70;;;30.50;;
3211;SDS011;1618;47.056;15.472;2023-09-19T13:43:06;36.40;;;33.30;;
3211;SDS011;1618;47.056;15.472;2023-09-19T13:45:34;35.93;;;32.93;;
3211;SDS011;1618;47.056;15.472;2023-09-19T13:48:02;34.20;;;31.10;;
3211;SDS011;1618;47.056;15.472;2023-09-19T13:50:29;34.57;;;31.27;;
3211;SDS011;1618;47.056;15.472;2023-09-19T13:52:57;33.77;;;30.57;;
3211;SDS011;1618;47.056;15.472;2023-09-19T13:55:27;33.20;;;30.00;;
3211;SDS011;1618;47.056;15.472;2023-09-19T13:57:54;33.50;;;30.30;;
3211;SDS011;1618;47.056;15.472;2023-09-19T14:00:23;34.70;;;31.50;;
3211;SDS011;1618;47.056;15.472;2023-09-19T14:02:51;34.33;;;31.03;;
3211;SDS011;1618;47.056;15.472;2023-09-19T14:05:18;34.53;;;31.43;;
3211;SDS011;1618;47.056;15.472;2023-09-19T14:07:48;33.47;;;30.30;;
3211;SDS011;1618;47.056;15.472;2023-09-19T14:10:17;33.20;;;30.00;;
3211;SDS011;1618;47.056;15.472;2023-09-19T14:12:45;34.30;;;31.10;;
3211;SDS011;1618;47.056;15.472;2023-09-19T14:15:13;33.50;;;30.40;;
3211;SDS011;1618;47.056;15.472;2023-09-19T14:17:40;33.07;;;29.97;;
3211;SDS011;1618;47.056;15.472;2023-09-19T14:20:10;32.73;;;29.53;;
3211;SDS011;1618;47.056;15.472;2023-09-19T14:22:40;33.33;;;30.23;;
3211;SDS011;1618;47.056;15.472;2023-09-19T14:25:08;32.80;;;29.70;;
3211;SDS011;1618;47.056;15.472;2023-09-19T14:27:36;34.47;;;31.57;;
3211;SDS011;1618;47.056;15.472;2023-09-19T14:30:06;34.53;;;31.53;;
3211;SDS011;1618;47.056;15.472;2023-09-19T14:32:34;34.77;;;31.83;;
3211;SDS011;1618;47.056;15.472;2023-09-19T14:35:04;34.10;;;31.00;;
3211;SDS011;1618;47.056;15.472;2023-09-19T14:37:31;33.23;;;30.23;;
3211;SDS011;1618;47.056;15.472;2023-09-19T14:39:59;33.40;;;30.60;;
3211;SDS011;1618;47.056;15.472;2023-09-19T14:42:34;31.80;;;28.90;;
3211;SDS011;1618;47.056;15.472;2023-09-19T14:45:03;31.50;;;28.60;;
3211;SDS011;1618;47.056;15.472;2023-09-19T14:47:32;32.67;;;29.67;;
3211;SDS011;1618;47.056;15.472;2023-09-19T14:50:00;32.90;;;29.90;;
3211;SDS011;1618;47.056;15.472;2023-09-19T14:52:29;33.63;;;30.63;;
3211;SDS011;1618;47.056;15.472;2023-09-19T14:54:56;32.37;;;29.37;;
3211;SDS011;1618;47.056;15.472;2023-09-19T14:57:24;32.93;;;29.83;;
3211;SDS011;1618;47.056;15.472;2023-09-19T14:59:51;33.30;;;30.20;;
3211;SDS011;1618;47.056;15.472;2023-09-19T15:02:19;32.30;;;29.20;;
3211;SDS011;1618;47.056;15.472;2023-09-19T15:04:48;32.73;;;29.73;;
3211;SDS011;1618;47.056;15.472;2023-09-19T15:07:16;32.87;;;29.77;;
3211;SDS011;1618;47.056;15.472;2023-09-19T15:09:43;32.10;;;29.10;;
3211;SDS011;1618;47.056;15.472;2023-09-19T15:12:12;32.57;;;29.47;;
3211;SDS011;1618;47.056;15.472;2023-09-19T15:14:42;34.00;;;30.80;;
3211;SDS011;1618;47.056;15.472;2023-09-19T15:17:09;33.33;;;30.13;;
3211;SDS011;1618;47.056;15.472;2023-09-19T15:19:36;34.40;;;31.20;;
3211;SDS011;1618;47.056;15.472;2023-09-19T15:22:05;35.00;;;31.90;;
3211;SDS011;1618;47.056;15.472;2023-09-19T15:24:32;32.00;;;29.00;;
3211;SDS011;1618;47.056;15.472;2023-09-19T15:27:00;32.60;;;29.50;;
3211;SDS011;1618;47.056;15.472;2023-09-19T15:29:27;34.40;;;31.20;;
3211;SDS011;1618;47.056;15.472;2023-09-19T15:31:55;33.67;;;30.53;;
3211;SDS011;1618;47.056;15.472;2023-09-19T15:34:27;33.10;;;30.10;;
3211;SDS011;1618;47.056;15.472;2023-09-19T15:36:55;33.67;;;30.67;;
3211;SDS011;1618;47.056;15.472;2023-09-19T15:39:23;33.47;;;30.57;;
3211;SDS011;1618;47.056;15.472;2023-09-19T15:41:51;33.80;;;30.90;;
3211;SDS011;1618;47.056;15.472;2023-09-19T15:44:20;31.43;;;28.73;;
3211;SDS011;1618;47.056;15.472;2023-09-19T15:46:49;33.10;;;30.40;;
3211;SDS011;1618;47.056;15.472;2023-09-19T15:49:16;32.00;;;29.20;;
3211;SDS011;1618;47.056;15.472;2023-09-19T15:51:43;32.30;;;29.50;;
3211;SDS011;1618;47.056;15.472;2023-09-19T15:54:11;31.60;;;28.80;;
3211;SDS011;1618;47.056;15.472;2023-09-19T15:56:41;32.70;;;29.90;;
3211;SDS011;1618;47.056;15.472;2023-09-19T15:59:10;32.67;;;29.87;;
3211;SDS011;1618;47.056;15.472;2023-09-19T16:01:39;33.47;;;30.67;;
3211;SDS011;1618;47.056;15.472;2023-09-19T16:04:07;32.70;;;29.90;;
3211;SDS011;1618;47.056;15.472;2023-09-19T16:06:35;33.23;;;30.33;;
3211;SDS011;1618;47.056;15.472;2023-09-19T16:09:03;32.10;;;29.40;;
3211;SDS011;1618;47.056;15.472;2023-09-19T16:11:32;32.40;;;29.70;;
3211;SDS011;1618;47.056;15.472;2023-09-19T16:14:01;34.23;;;31.43;;
3211;SDS011;1618;47.056;15.472;2023-09-19T16:16:29;31.70;;;29.00;;
3211;SDS011;1618;47.056;15.472;2023-09-19T16:18:59;32.70;;;30.00;;
3211;SDS011;1618;47.056;15.472;2023-09-19T16:21:30;32.47;;;29.87;;
3211;SDS011;1618;47.056;15.472;2023-09-19T16:23:58;32.70;;;30.00;;
3211;SDS011;1618;47.056;15.472;2023-09-19T16:26:26;33.30;;;30.50;;
3211;SDS011;1618;47.056;15.472;2023-09-19T16:28:55;31.73;;;29.10;;
3211;SDS011;1618;47.056;15.472;2023-09-19T16:31:26;33.30;;;30.50;;
3211;SDS011;1618;47.056;15.472;2023-09-19T16:33:54;34.90;;;32.10;;
3211;SDS011;1618;47.056;15.472;2023-09-19T16:36:23;33.50;;;30.80;;
3211;SDS011;1618;47.056;15.472;2023-09-19T16:38:52;32.45;;;29.75;;
3211;SDS011;1618;47.056;15.472;2023-09-19T16:41:20;31.35;;;28.85;;
3211;SDS011;1618;47.056;15.472;2023-09-19T16:43:48;31.33;;;28.83;;
3211;SDS011;1618;47.056;15.472;2023-09-19T16:46:18;31.80;;;29.30;;
3211;SDS011;1618;47.056;15.472;2023-09-19T16:48:52;31.20;;;28.60;;
3211;SDS011;1618;47.056;15.472;2023-09-19T16:51:21;31.00;;;28.50;;
3211;SDS011;1618;47.056;15.472;2023-09-19T16:53:49;32.07;;;29.57;;
3211;SDS011;1618;47.056;15.472;2023-09-19T16:56:17;30.10;;;27.70;;
3211;SDS011;1618;47.056;15.472;2023-09-19T16:58:46;30.97;;;28.47;;
3211;SDS011;1618;47.056;15.472;2023-09-19T17:01:15;32.10;;;29.60;;
3211;SDS011;1618;47.056;15.472;2023-09-19T17:03:44;31.77;;;29.37;;
3211;SDS011;1618;47.056;15.472;2023-09-19T17:06:14;33.70;;;31.20;;
3211;SDS011;1618;47.056;15.472;2023-09-19T17:08:42;32.57;;;30.07;;
3211;SDS011;1618;47.056;15.472;2023-09-19T17:11:10;32.43;;;30.03;;
3211;SDS011;1618;47.056;15.472;2023-09-19T17:13:40;33.67;;;31.07;;
3211;SDS011;1618;47.056;15.472;2023-09-19T17:16:09;31.90;;;29.60;;